Annandale, New Jersey
Current Conditions -  °F | °C
As of 5:53 PM on Saturday 25 Oct 2014 (Local Time) from KSMQ Reporting Station
Clear Clear  
Wind Chill: 65°   Ceiling: Unl
Heat Index: 65°   Visibility: 10mi
Dew Point: 43°   Wind: 3mph
Humidity: 45%   Direction: NA
Pressure: 29.64"   Gusts: NA
Location:  40.65°N, 74.89°W
Report Text: KSMQ 252153Z AUTO VRB03KT 10SM CLR 18/06 A2964 RMK AO2 SLP038 T01830061
Loading
Personal Weather Stations






























Interactive Weather Map
Tropical Storm Tracking
New forecast layout! Learn more

10-Day Weather Forecast

Advertisements
Track Severe Weather on mobile